sensor_id;sensor_type;location;lat;lon;timestamp;pressure;altitude;pressure_sealevel;temperature;humidity
16016;BME280;8112;53.592;10.184;2022-08-07T00:03:30;102347.34;;;13.05;100.00
16016;BME280;8112;53.592;10.184;2022-08-07T00:08:32;102345.47;;;13.48;100.00
16016;BME280;8112;53.592;10.184;2022-08-07T00:13:36;102344.38;;;13.52;100.00
16016;BME280;8112;53.592;10.184;2022-08-07T00:18:40;102341.59;;;13.35;100.00
16016;BME280;8112;53.592;10.184;2022-08-07T00:23:43;102335.81;;;13.26;100.00
16016;BME280;8112;53.592;10.184;2022-08-07T00:28:44;102330.34;;;13.10;100.00
16016;BME280;8112;53.592;10.184;2022-08-07T00:33:47;102329.19;;;13.16;100.00
16016;BME280;8112;53.592;10.184;2022-08-07T00:38:50;102330.22;;;12.93;100.00
16016;BME280;8112;53.592;10.184;2022-08-07T00:43:51;102325.50;;;13.20;100.00
16016;BME280;8112;53.592;10.184;2022-08-07T00:49:03;102330.00;;;12.97;100.00
16016;BME280;8112;53.592;10.184;2022-08-07T00:54:05;102322.69;;;13.44;100.00
16016;BME280;8112;53.592;10.184;2022-08-07T00:59:07;102328.88;;;13.64;100.00
16016;BME280;8112;53.592;10.184;2022-08-07T01:04:11;102319.31;;;13.01;100.00
16016;BME280;8112;53.592;10.184;2022-08-07T01:09:12;102319.53;;;12.75;100.00
16016;BME280;8112;53.592;10.184;2022-08-07T01:14:14;102329.94;;;12.58;100.00
16016;BME280;8112;53.592;10.184;2022-08-07T01:19:19;102328.06;;;12.82;100.00
16016;BME280;8112;53.592;10.184;2022-08-07T01:24:26;102324.34;;;12.65;100.00
16016;BME280;8112;53.592;10.184;2022-08-07T01:29:29;102323.09;;;12.31;100.00
16016;BME280;8112;53.592;10.184;2022-08-07T01:34:36;102318.03;;;12.25;100.00
16016;BME280;8112;53.592;10.184;2022-08-07T01:39:46;102313.44;;;12.30;100.00
16016;BME280;8112;53.592;10.184;2022-08-07T01:44:56;102313.00;;;12.41;100.00
16016;BME280;8112;53.592;10.184;2022-08-07T01:50:06;102316.16;;;12.29;100.00
16016;BME280;8112;53.592;10.184;2022-08-07T01:55:10;102310.25;;;12.22;100.00
16016;BME280;8112;53.592;10.184;2022-08-07T02:00:15;102307.59;;;12.22;100.00
16016;BME280;8112;53.592;10.184;2022-08-07T02:05:26;102310.25;;;12.00;100.00
16016;BME280;8112;53.592;10.184;2022-08-07T02:10:37;102305.88;;;12.21;100.00
16016;BME280;8112;53.592;10.184;2022-08-07T02:15:51;102308.38;;;12.46;100.00
16016;BME280;8112;53.592;10.184;2022-08-07T02:20:55;102306.44;;;12.07;100.00
16016;BME280;8112;53.592;10.184;2022-08-07T02:26:04;102308.53;;;12.21;100.00
16016;BME280;8112;53.592;10.184;2022-08-07T02:31:08;102299.44;;;12.06;100.00
16016;BME280;8112;53.592;10.184;2022-08-07T02:36:12;102300.50;;;12.00;100.00
16016;BME280;8112;53.592;10.184;2022-08-07T02:41:16;102296.88;;;11.80;100.00
16016;BME280;8112;53.592;10.184;2022-08-07T02:46:33;102291.97;;;12.17;100.00
16016;BME280;8112;53.592;10.184;2022-08-07T02:51:36;102299.69;;;12.00;100.00
16016;BME280;8112;53.592;10.184;2022-08-07T02:56:41;102292.03;;;11.69;100.00
16016;BME280;8112;53.592;10.184;2022-08-07T03:01:45;102287.38;;;11.76;100.00
16016;BME280;8112;53.592;10.184;2022-08-07T03:06:49;102281.47;;;11.69;100.00
16016;BME280;8112;53.592;10.184;2022-08-07T03:11:53;102282.81;;;11.58;100.00
16016;BME280;8112;53.592;10.184;2022-08-07T03:16:55;102283.81;;;11.77;100.00
16016;BME280;8112;53.592;10.184;2022-08-07T03:21:58;102286.66;;;12.17;100.00
16016;BME280;8112;53.592;10.184;2022-08-07T03:27:05;102285.25;;;12.08;100.00
16016;BME280;8112;53.592;10.184;2022-08-07T03:32:20;102269.81;;;11.75;100.00
16016;BME280;8112;53.592;10.184;2022-08-07T03:37:24;102270.13;;;11.44;100.00
16016;BME280;8112;53.592;10.184;2022-08-07T03:42:29;102274.28;;;11.27;100.00
16016;BME280;8112;53.592;10.184;2022-08-07T03:47:40;102286.22;;;11.12;100.00
16016;BME280;8112;53.592;10.184;2022-08-07T03:52:55;102289.81;;;11.35;100.00
16016;BME280;8112;53.592;10.184;2022-08-07T03:57:59;102284.00;;;11.49;100.00
16016;BME280;8112;53.592;10.184;2022-08-07T04:03:06;102287.53;;;11.72;100.00
16016;BME280;8112;53.592;10.184;2022-08-07T04:08:14;102295.88;;;12.29;100.00
16016;BME280;8112;53.592;10.184;2022-08-07T04:13:33;102297.81;;;11.79;100.00
16016;BME280;8112;53.592;10.184;2022-08-07T04:18:36;102294.75;;;11.44;100.00
16016;BME280;8112;53.592;10.184;2022-08-07T04:23:39;102297.25;;;11.47;100.00
16016;BME280;8112;53.592;10.184;2022-08-07T04:28:43;102309.41;;;11.51;100.00
16016;BME280;8112;53.592;10.184;2022-08-07T04:33:45;102315.84;;;11.68;100.00
16016;BME280;8112;53.592;10.184;2022-08-07T04:38:48;102309.59;;;11.71;100.00
16016;BME280;8112;53.592;10.184;2022-08-07T04:43:55;102312.59;;;12.50;100.00
16016;BME280;8112;53.592;10.184;2022-08-07T04:49:02;102319.53;;;13.36;100.00
16016;BME280;8112;53.592;10.184;2022-08-07T04:54:12;102315.53;;;13.85;100.00
16016;BME280;8112;53.592;10.184;2022-08-07T04:59:32;102329.72;;;14.03;100.00
16016;BME280;8112;53.592;10.184;2022-08-07T05:04:41;102320.88;;;14.02;100.00
16016;BME280;8112;53.592;10.184;2022-08-07T05:09:54;102312.94;;;14.02;100.00
16016;BME280;8112;53.592;10.184;2022-08-07T05:15:03;102321.38;;;14.10;100.00
16016;BME280;8112;53.592;10.184;2022-08-07T05:20:18;102326.00;;;14.24;100.00
16016;BME280;8112;53.592;10.184;2022-08-07T05:25:28;102332.81;;;14.48;100.00
16016;BME280;8112;53.592;10.184;2022-08-07T05:30:35;102327.53;;;14.65;100.00
16016;BME280;8112;53.592;10.184;2022-08-07T05:35:38;102331.41;;;15.11;100.00
16016;BME280;8112;53.592;10.184;2022-08-07T05:40:41;102333.97;;;15.46;100.00
16016;BME280;8112;53.592;10.184;2022-08-07T05:45:46;102330.56;;;15.76;100.00
16016;BME280;8112;53.592;10.184;2022-08-07T05:50:51;102326.53;;;16.01;100.00
16016;BME280;8112;53.592;10.184;2022-08-07T05:55:55;102324.38;;;16.24;100.00
16016;BME280;8112;53.592;10.184;2022-08-07T06:01:00;102325.00;;;16.44;100.00
16016;BME280;8112;53.592;10.184;2022-08-07T06:06:02;102320.91;;;16.69;100.00
16016;BME280;8112;53.592;10.184;2022-08-07T06:11:05;102316.41;;;17.00;100.00
16016;BME280;8112;53.592;10.184;2022-08-07T06:16:09;102314.69;;;17.13;100.00
16016;BME280;8112;53.592;10.184;2022-08-07T06:21:12;102322.09;;;17.37;100.00
16016;BME280;8112;53.592;10.184;2022-08-07T06:26:15;102314.63;;;17.71;100.00
16016;BME280;8112;53.592;10.184;2022-08-07T06:31:18;102316.03;;;18.19;100.00
16016;BME280;8112;53.592;10.184;2022-08-07T06:36:20;102307.72;;;18.23;100.00
16016;BME280;8112;53.592;10.184;2022-08-07T06:41:30;102315.09;;;18.33;100.00
16016;BME280;8112;53.592;10.184;2022-08-07T06:46:34;102308.81;;;18.47;100.00
16016;BME280;8112;53.592;10.184;2022-08-07T06:51:38;102311.75;;;18.70;100.00
16016;BME280;8112;53.592;10.184;2022-08-07T06:56:44;102321.56;;;18.43;100.00
16016;BME280;8112;53.592;10.184;2022-08-07T07:01:56;102327.88;;;18.55;100.00
16016;BME280;8112;53.592;10.184;2022-08-07T07:07:00;102325.88;;;18.85;100.00
16016;BME280;8112;53.592;10.184;2022-08-07T07:12:26;102312.19;;;19.41;100.00
16016;BME280;8112;53.592;10.184;2022-08-07T07:17:36;102325.75;;;19.75;100.00
16016;BME280;8112;53.592;10.184;2022-08-07T07:22:59;102323.84;;;19.77;100.00
16016;BME280;8112;53.592;10.184;2022-08-07T07:28:09;102324.50;;;20.05;100.00
16016;BME280;8112;53.592;10.184;2022-08-07T07:33:15;102321.69;;;20.31;100.00
16016;BME280;8112;53.592;10.184;2022-08-07T07:38:24;102320.91;;;19.93;100.00
16016;BME280;8112;53.592;10.184;2022-08-07T07:43:26;102313.97;;;20.62;100.00
16016;BME280;8112;53.592;10.184;2022-08-07T07:48:30;102314.66;;;20.42;100.00
16016;BME280;8112;53.592;10.184;2022-08-07T07:53:34;102311.59;;;20.82;100.00
16016;BME280;8112;53.592;10.184;2022-08-07T07:58:38;102307.03;;;20.60;100.00
16016;BME280;8112;53.592;10.184;2022-08-07T08:03:42;102301.09;;;20.79;100.00
16016;BME280;8112;53.592;10.184;2022-08-07T08:08:45;102297.91;;;20.62;100.00
16016;BME280;8112;53.592;10.184;2022-08-07T08:13:48;102295.66;;;20.81;100.00
16016;BME280;8112;53.592;10.184;2022-08-07T08:18:53;102293.50;;;21.75;100.00
16016;BME280;8112;53.592;10.184;2022-08-07T08:23:57;102284.25;;;21.80;100.00
16016;BME280;8112;53.592;10.184;2022-08-07T08:29:17;102282.09;;;21.62;100.00
16016;BME280;8112;53.592;10.184;2022-08-07T08:34:22;102281.56;;;21.80;100.00
16016;BME280;8112;53.592;10.184;2022-08-07T08:39:26;102279.00;;;22.32;100.00
16016;BME280;8112;53.592;10.184;2022-08-07T08:44:33;102273.84;;;22.61;100.00
16016;BME280;8112;53.592;10.184;2022-08-07T08:49:45;102266.44;;;22.54;100.00
16016;BME280;8112;53.592;10.184;2022-08-07T08:54:55;102269.50;;;22.70;100.00
16016;BME280;8112;53.592;10.184;2022-08-07T09:00:02;102269.72;;;22.78;98.32
16016;BME280;8112;53.592;10.184;2022-08-07T09:05:22;102263.88;;;23.04;95.84
16016;BME280;8112;53.592;10.184;2022-08-07T09:10:31;102260.97;;;23.27;96.54
16016;BME280;8112;53.592;10.184;2022-08-07T09:15:38;102263.13;;;22.92;97.36
16016;BME280;8112;53.592;10.184;2022-08-07T09:21:04;102253.72;;;23.18;87.85
16016;BME280;8112;53.592;10.184;2022-08-07T09:26:17;102256.03;;;22.60;90.38
16016;BME280;8112;53.592;10.184;2022-08-07T09:31:30;102250.16;;;23.88;81.17
16016;BME280;8112;53.592;10.184;2022-08-07T09:36:40;102249.88;;;21.73;91.14
16016;BME280;8112;53.592;10.184;2022-08-07T09:41:55;102242.75;;;22.69;91.32
16016;BME280;8112;53.592;10.184;2022-08-07T09:47:08;102240.78;;;23.53;80.18
16016;BME280;8112;53.592;10.184;2022-08-07T09:52:20;102235.56;;;24.00;79.26
16016;BME280;8112;53.592;10.184;2022-08-07T10:14:27;102217.69;;;24.29;71.84
16016;BME280;8112;53.592;10.184;2022-08-07T10:19:39;102212.22;;;25.14;72.24
16016;BME280;8112;53.592;10.184;2022-08-07T10:25:03;102203.84;;;23.04;69.19
16016;BME280;8112;53.592;10.184;2022-08-07T10:30:12;102208.41;;;21.77;82.42
16016;BME280;8112;53.592;10.184;2022-08-07T10:35:23;102202.13;;;22.93;77.40
16016;BME280;8112;53.592;10.184;2022-08-07T10:40:33;102182.19;;;24.71;73.78
16016;BME280;8112;53.592;10.184;2022-08-07T10:45:41;102185.09;;;25.88;68.42
16016;BME280;8112;53.592;10.184;2022-08-07T10:50:46;102185.91;;;26.07;65.59
16016;BME280;8112;53.592;10.184;2022-08-07T10:56:01;102175.75;;;25.56;61.16
16016;BME280;8112;53.592;10.184;2022-08-07T11:01:18;102168.53;;;25.83;60.72
16016;BME280;8112;53.592;10.184;2022-08-07T11:06:27;102161.88;;;26.49;61.39
16016;BME280;8112;53.592;10.184;2022-08-07T11:11:34;102157.88;;;27.12;53.96
16016;BME280;8112;53.592;10.184;2022-08-07T11:16:42;102153.03;;;24.57;57.87
16016;BME280;8112;53.592;10.184;2022-08-07T11:21:53;102161.31;;;25.66;59.09
16016;BME280;8112;53.592;10.184;2022-08-07T11:27:03;102153.78;;;27.00;57.77
16016;BME280;8112;53.592;10.184;2022-08-07T11:32:11;102159.09;;;26.75;52.60
16016;BME280;8112;53.592;10.184;2022-08-07T11:37:31;102150.16;;;24.78;56.89
16016;BME280;8112;53.592;10.184;2022-08-07T11:42:46;102150.66;;;25.10;58.76
16016;BME280;8112;53.592;10.184;2022-08-07T11:53:36;102145.28;;;25.64;54.83
16016;BME280;8112;53.592;10.184;2022-08-07T11:58:52;102138.81;;;24.65;57.95
16016;BME280;8112;53.592;10.184;2022-08-07T12:04:08;102138.44;;;24.22;59.85
16016;BME280;8112;53.592;10.184;2022-08-07T12:09:17;102130.88;;;23.18;64.08
16016;BME280;8112;53.592;10.184;2022-08-07T12:14:24;102121.75;;;22.80;70.36
16016;BME280;8112;53.592;10.184;2022-08-07T12:19:35;102118.41;;;23.76;69.91
16016;BME280;8112;53.592;10.184;2022-08-07T12:24:48;102111.06;;;23.39;66.74
16016;BME280;8112;53.592;10.184;2022-08-07T12:30:11;102111.03;;;23.00;69.59
16016;BME280;8112;53.592;10.184;2022-08-07T12:35:13;102106.16;;;22.64;69.92
16016;BME280;8112;53.592;10.184;2022-08-07T12:40:19;102113.75;;;22.59;71.35
16016;BME280;8112;53.592;10.184;2022-08-07T12:45:26;102100.94;;;22.72;69.76
16016;BME280;8112;53.592;10.184;2022-08-07T12:50:35;102086.94;;;23.87;72.12
16016;BME280;8112;53.592;10.184;2022-08-07T12:55:41;102090.13;;;23.53;66.27
16016;BME280;8112;53.592;10.184;2022-08-07T13:00:51;102086.56;;;23.72;72.44
16016;BME280;8112;53.592;10.184;2022-08-07T13:06:08;102089.09;;;23.73;69.75
16016;BME280;8112;53.592;10.184;2022-08-07T13:11:32;102082.59;;;23.66;71.84
16016;BME280;8112;53.592;10.184;2022-08-07T13:16:40;102086.59;;;23.42;67.81
16016;BME280;8112;53.592;10.184;2022-08-07T13:21:55;102087.59;;;23.31;71.21
16016;BME280;8112;53.592;10.184;2022-08-07T13:27:09;102075.06;;;23.80;66.76
16016;BME280;8112;53.592;10.184;2022-08-07T13:32:21;102070.66;;;23.88;67.69
16016;BME280;8112;53.592;10.184;2022-08-07T13:37:36;102071.56;;;23.49;69.61
16016;BME280;8112;53.592;10.184;2022-08-07T13:42:42;102078.31;;;22.75;73.81
16016;BME280;8112;53.592;10.184;2022-08-07T13:47:55;102070.56;;;22.91;76.14
16016;BME280;8112;53.592;10.184;2022-08-07T13:52:58;102069.16;;;22.97;71.43
16016;BME280;8112;53.592;10.184;2022-08-07T13:58:09;102066.03;;;22.82;75.76
16016;BME280;8112;53.592;10.184;2022-08-07T14:03:34;102062.94;;;22.97;76.93
16016;BME280;8112;53.592;10.184;2022-08-07T14:08:44;102055.00;;;22.85;76.84
16016;BME280;8112;53.592;10.184;2022-08-07T14:13:51;102048.72;;;23.73;69.41
16016;BME280;8112;53.592;10.184;2022-08-07T14:19:00;102044.59;;;24.27;71.99
16016;BME280;8112;53.592;10.184;2022-08-07T14:24:07;102050.63;;;25.03;64.70
16016;BME280;8112;53.592;10.184;2022-08-07T14:29:16;102031.88;;;24.65;60.83
16016;BME280;8112;53.592;10.184;2022-08-07T14:34:23;102038.22;;;24.46;60.61
16016;BME280;8112;53.592;10.184;2022-08-07T14:39:30;102031.06;;;23.99;65.90
16016;BME280;8112;53.592;10.184;2022-08-07T14:44:45;102032.19;;;24.06;64.38
16016;BME280;8112;53.592;10.184;2022-08-07T14:49:49;102027.41;;;23.23;63.28
16016;BME280;8112;53.592;10.184;2022-08-07T15:00:04;102005.25;;;23.68;63.61
16016;BME280;8112;53.592;10.184;2022-08-07T15:05:13;102005.34;;;23.76;63.61
16016;BME280;8112;53.592;10.184;2022-08-07T15:10:20;102006.34;;;23.28;66.96
16016;BME280;8112;53.592;10.184;2022-08-07T15:15:33;102005.88;;;24.28;62.54
16016;BME280;8112;53.592;10.184;2022-08-07T15:20:40;102004.44;;;24.52;60.00
16016;BME280;8112;53.592;10.184;2022-08-07T15:25:46;101999.00;;;24.43;60.91
16016;BME280;8112;53.592;10.184;2022-08-07T15:30:51;101993.19;;;24.38;61.01
16016;BME280;8112;53.592;10.184;2022-08-07T15:35:57;101997.66;;;23.54;62.54
16016;BME280;8112;53.592;10.184;2022-08-07T15:41:09;101997.56;;;24.39;62.14
16016;BME280;8112;53.592;10.184;2022-08-07T15:46:17;101990.88;;;25.95;56.87
16016;BME280;8112;53.592;10.184;2022-08-07T15:51:25;101974.69;;;26.55;55.09
16016;BME280;8112;53.592;10.184;2022-08-07T15:56:33;101976.22;;;25.37;55.75
16016;BME280;8112;53.592;10.184;2022-08-07T16:01:49;101976.03;;;24.39;57.26
16016;BME280;8112;53.592;10.184;2022-08-07T16:06:57;101963.97;;;24.43;58.26
16016;BME280;8112;53.592;10.184;2022-08-07T16:12:08;101970.38;;;24.14;58.25
16016;BME280;8112;53.592;10.184;2022-08-07T16:17:31;101964.59;;;24.55;60.74
16016;BME280;8112;53.592;10.184;2022-08-07T16:22:42;101962.50;;;24.67;58.07
16016;BME280;8112;53.592;10.184;2022-08-07T16:27:54;101952.16;;;24.26;59.29
16016;BME280;8112;53.592;10.184;2022-08-07T16:33:07;101954.59;;;23.91;60.01
16016;BME280;8112;53.592;10.184;2022-08-07T16:38:23;101955.25;;;23.66;59.70
16016;BME280;8112;53.592;10.184;2022-08-07T16:43:46;101946.91;;;23.31;60.65
16016;BME280;8112;53.592;10.184;2022-08-07T16:49:11;101961.63;;;22.77;64.56
16016;BME280;8112;53.592;10.184;2022-08-07T16:54:47;101968.16;;;22.75;65.66
16016;BME280;8112;53.592;10.184;2022-08-07T17:00:13;101969.56;;;22.59;70.54
16016;BME280;8112;53.592;10.184;2022-08-07T17:05:33;101962.06;;;22.53;69.18
16016;BME280;8112;53.592;10.184;2022-08-07T17:10:45;101962.72;;;22.35;71.29
16016;BME280;8112;53.592;10.184;2022-08-07T17:15:53;101959.84;;;22.27;69.82
16016;BME280;8112;53.592;10.184;2022-08-07T17:21:00;101967.59;;;22.20;70.25
16016;BME280;8112;53.592;10.184;2022-08-07T17:26:13;101971.72;;;22.15;74.42
16016;BME280;8112;53.592;10.184;2022-08-07T17:31:20;101970.97;;;22.13;73.64
16016;BME280;8112;53.592;10.184;2022-08-07T17:36:27;101967.44;;;22.02;79.10
16016;BME280;8112;53.592;10.184;2022-08-07T17:41:44;101966.69;;;21.90;79.14
16016;BME280;8112;53.592;10.184;2022-08-07T17:46:53;101958.34;;;21.84;78.55
16016;BME280;8112;53.592;10.184;2022-08-07T17:51:58;101960.91;;;21.64;81.90
16016;BME280;8112;53.592;10.184;2022-08-07T17:57:11;101956.59;;;21.52;81.98
16016;BME280;8112;53.592;10.184;2022-08-07T18:02:21;101959.22;;;21.42;84.72
16016;BME280;8112;53.592;10.184;2022-08-07T18:07:30;101952.94;;;21.31;91.06
16016;BME280;8112;53.592;10.184;2022-08-07T18:13:02;101957.69;;;21.18;93.50
16016;BME280;8112;53.592;10.184;2022-08-07T18:18:08;101956.63;;;21.09;95.55
16016;BME280;8112;53.592;10.184;2022-08-07T18:23:16;101966.75;;;21.05;95.89
16016;BME280;8112;53.592;10.184;2022-08-07T18:28:49;101973.75;;;21.18;100.00
16016;BME280;8112;53.592;10.184;2022-08-07T18:34:17;101977.00;;;21.00;100.00
16016;BME280;8112;53.592;10.184;2022-08-07T18:39:27;101988.63;;;20.78;100.00
16016;BME280;8112;53.592;10.184;2022-08-07T18:44:43;101992.38;;;20.54;100.00
16016;BME280;8112;53.592;10.184;2022-08-07T18:49:59;101992.53;;;20.41;100.00
16016;BME280;8112;53.592;10.184;2022-08-07T18:55:17;101998.72;;;20.30;100.00
16016;BME280;8112;53.592;10.184;2022-08-07T19:00:39;102008.59;;;20.18;100.00
16016;BME280;8112;53.592;10.184;2022-08-07T19:05:49;102000.84;;;20.04;100.00
16016;BME280;8112;53.592;10.184;2022-08-07T19:10:56;102013.69;;;19.87;100.00
16016;BME280;8112;53.592;10.184;2022-08-07T19:16:04;102019.75;;;19.78;100.00
16016;BME280;8112;53.592;10.184;2022-08-07T19:21:24;102017.06;;;19.66;100.00
16016;BME280;8112;53.592;10.184;2022-08-07T19:26:42;102017.53;;;19.49;100.00
16016;BME280;8112;53.592;10.184;2022-08-07T19:31:49;102023.91;;;19.35;100.00
16016;BME280;8112;53.592;10.184;2022-08-07T19:36:53;102026.91;;;19.19;100.00
16016;BME280;8112;53.592;10.184;2022-08-07T19:41:58;102036.97;;;19.15;100.00
16016;BME280;8112;53.592;10.184;2022-08-07T19:47:06;102036.41;;;19.23;100.00
16016;BME280;8112;53.592;10.184;2022-08-07T19:52:10;102037.75;;;19.29;100.00
16016;BME280;8112;53.592;10.184;2022-08-07T19:57:19;102042.19;;;18.92;100.00
16016;BME280;8112;53.592;10.184;2022-08-07T20:02:30;102039.91;;;18.75;100.00
16016;BME280;8112;53.592;10.184;2022-08-07T20:07:33;102052.44;;;18.61;100.00
16016;BME280;8112;53.592;10.184;2022-08-07T20:12:38;102044.50;;;18.35;100.00
16016;BME280;8112;53.592;10.184;2022-08-07T20:17:44;102056.28;;;18.20;100.00
16016;BME280;8112;53.592;10.184;2022-08-07T20:22:48;102052.00;;;18.04;100.00
16016;BME280;8112;53.592;10.184;2022-08-07T20:27:52;102061.78;;;17.91;100.00
16016;BME280;8112;53.592;10.184;2022-08-07T20:32:58;102067.63;;;17.70;100.00
16016;BME280;8112;53.592;10.184;2022-08-07T20:38:02;102072.44;;;17.65;100.00
16016;BME280;8112;53.592;10.184;2022-08-07T20:43:07;102064.44;;;17.91;100.00
16016;BME280;8112;53.592;10.184;2022-08-07T20:48:12;102068.19;;;18.01;100.00
16016;BME280;8112;53.592;10.184;2022-08-07T20:53:20;102069.69;;;17.66;100.00
16016;BME280;8112;53.592;10.184;2022-08-07T20:58:25;102076.41;;;17.32;100.00
16016;BME280;8112;53.592;10.184;2022-08-07T21:03:32;102068.69;;;17.14;100.00
16016;BME280;8112;53.592;10.184;2022-08-07T21:08:38;102065.28;;;16.98;100.00
16016;BME280;8112;53.592;10.184;2022-08-07T21:13:46;102070.47;;;16.86;100.00
16016;BME280;8112;53.592;10.184;2022-08-07T21:18:52;102068.78;;;16.71;100.00
16016;BME280;8112;53.592;10.184;2022-08-07T21:24:00;102073.38;;;16.69;100.00
16016;BME280;8112;53.592;10.184;2022-08-07T21:29:06;102064.81;;;16.91;100.00
16016;BME280;8112;53.592;10.184;2022-08-07T21:34:26;102061.09;;;17.35;100.00
16016;BME280;8112;53.592;10.184;2022-08-07T21:39:35;102071.31;;;16.87;100.00
16016;BME280;8112;53.592;10.184;2022-08-07T21:44:42;102077.00;;;16.38;100.00
16016;BME280;8112;53.592;10.184;2022-08-07T21:49:51;102075.19;;;16.10;100.00
16016;BME280;8112;53.592;10.184;2022-08-07T21:55:02;102076.69;;;16.00;100.00
16016;BME280;8112;53.592;10.184;2022-08-07T22:00:11;102076.91;;;16.11;100.00
16016;BME280;8112;53.592;10.184;2022-08-07T22:05:19;102078.41;;;16.01;100.00
16016;BME280;8112;53.592;10.184;2022-08-07T22:10:24;102078.69;;;15.96;100.00
16016;BME280;8112;53.592;10.184;2022-08-07T22:15:37;102085.16;;;15.76;100.00
16016;BME280;8112;53.592;10.184;2022-08-07T22:20:47;102083.34;;;15.62;100.00
